Time;durP1;ratioP1;P1;durP2;ratioP2;P2;SDS_P1;SDS_P2;PMS_P1;PMS_P2;Temp;Humidity;BMP_temperature;BMP_pressure;BME280_temperature;BME280_humidity;BME280_pressure;Samples;Min_cycle;Max_cycle;Signal;HPM_P1;HPM_P2
2023/01/12 00:01:10;;;;;;;17.15;3.28;;;;;;;7.44;100.00;100927.47;5029959;28;20026;-56
2023/01/12 00:03:35;;;;;;;13.07;3.28;;;;;;;7.39;100.00;100926.09;5030158;28;20096;-57
2023/01/12 00:06:03;;;;;;;12.45;2.92;;;;;;;7.36;100.00;100918.44;5024148;28;20051;-56
2023/01/12 00:08:30;;;;;;;12.82;2.83;;;;;;;7.34;100.00;100919.53;5028946;28;20060;-56
2023/01/12 00:10:56;;;;;;;9.50;2.53;;;;;;;7.47;100.00;100914.00;5028213;28;20045;-56
2023/01/12 00:13:21;;;;;;;14.70;3.40;;;;;;;7.40;100.00;100904.00;5026418;28;20025;-56
2023/01/12 00:18:31;;;;;;;16.38;3.20;;;;;;;7.34;100.00;100901.91;5029277;28;20483;-56
2023/01/12 00:20:56;;;;;;;15.50;3.45;;;;;;;7.33;100.00;100889.69;5023349;28;20042;-57
2023/01/12 00:23:23;;;;;;;13.77;3.45;;;;;;;7.39;100.00;100890.94;5025739;28;20132;-57
2023/01/12 00:25:50;;;;;;;14.35;3.33;;;;;;;7.35;100.00;100890.38;5027121;28;20031;-57
2023/01/12 00:28:15;;;;;;;14.68;3.67;;;;;;;7.44;100.00;100875.53;5028948;28;20032;-57
2023/01/12 00:30:41;;;;;;;13.40;3.38;;;;;;;7.42;100.00;100895.09;5027399;28;20500;-57
2023/01/12 00:33:07;;;;;;;20.70;3.80;;;;;;;7.40;100.00;100871.50;5024927;28;20471;-56
2023/01/12 00:35:34;;;;;;;17.67;3.55;;;;;;;7.37;100.00;100877.91;5027588;28;20548;-56
2023/01/12 00:38:00;;;;;;;19.98;3.90;;;;;;;7.42;100.00;100866.09;5025053;28;20033;-57
2023/01/12 00:40:25;;;;;;;15.88;3.55;;;;;;;7.43;100.00;100859.81;5023737;28;20422;-56
2023/01/12 00:45:34;;;;;;;15.23;3.80;;;;;;;7.45;100.00;100852.63;5026955;28;20593;-57
2023/01/12 00:47:59;;;;;;;20.05;3.88;;;;;;;7.44;100.00;100857.06;5026192;28;20049;-57
2023/01/12 00:50:25;;;;;;;16.55;3.95;;;;;;;7.47;100.00;100861.22;5020879;28;20034;-58
2023/01/12 00:52:50;;;;;;;18.65;3.55;;;;;;;7.46;100.00;100854.28;5022153;28;20036;-58
2023/01/12 00:55:15;;;;;;;19.38;4.05;;;;;;;7.45;100.00;100850.00;5029782;28;20022;-56
2023/01/12 00:57:41;;;;;;;18.42;4.03;;;;;;;7.47;100.00;100840.13;5029377;28;20034;-56
2023/01/12 01:00:07;;;;;;;20.42;4.43;;;;;;;7.46;100.00;100849.81;5026277;28;20116;-57
2023/01/12 01:02:33;;;;;;;14.43;3.67;;;;;;;7.45;100.00;100842.06;5028667;28;20048;-57
2023/01/12 01:04:58;;;;;;;15.70;3.85;;;;;;;7.47;100.00;100819.00;5029284;28;20041;-57
2023/01/12 01:07:23;;;;;;;16.08;3.70;;;;;;;7.43;100.00;100812.34;5029310;28;20457;-56
2023/01/12 01:09:49;;;;;;;13.85;3.78;;;;;;;7.46;100.00;100822.63;5030335;28;20069;-56
2023/01/12 01:12:15;;;;;;;17.05;4.25;;;;;;;7.50;100.00;100824.00;5029322;28;20539;-56
2023/01/12 01:14:40;;;;;;;17.15;3.83;;;;;;;7.44;100.00;100821.94;5029442;28;20461;-56
2023/01/12 01:17:06;;;;;;;18.95;3.65;;;;;;;7.45;100.00;100820.97;5027439;28;20044;-57
2023/01/12 01:19:31;;;;;;;18.00;4.20;;;;;;;7.45;100.00;100813.03;5019970;28;20625;-57
2023/01/12 01:21:56;;;;;;;19.02;3.97;;;;;;;7.52;100.00;100817.63;5025288;28;20064;-56
2023/01/12 01:24:22;;;;;;;22.05;4.30;;;;;;;7.47;100.00;100819.00;5027826;28;20112;-55
2023/01/12 01:26:48;;;;;;;20.63;4.28;;;;;;;7.45;100.00;100807.78;5032733;28;20037;-57
2023/01/12 01:29:14;;;;;;;19.52;4.28;;;;;;;7.46;100.00;100806.78;5027228;28;20059;-57
2023/01/12 01:31:39;;;;;;;22.70;4.75;;;;;;;7.46;100.00;100801.50;5029443;28;20068;-57
2023/01/12 01:34:04;;;;;;;14.48;3.75;;;;;;;7.52;100.00;100811.50;5032919;28;20064;-56
2023/01/12 01:36:30;;;;;;;20.50;4.28;;;;;;;7.45;100.00;100808.59;5022897;28;20030;-57
2023/01/12 01:38:55;;;;;;;22.90;4.13;;;;;;;7.53;100.00;100807.88;5031550;28;20918;-57
2023/01/12 01:41:24;;;;;;;22.70;4.32;;;;;;;7.45;100.00;100802.50;5023400;28;20120;-57
2023/01/12 01:44:02;;;;;;;22.02;5.10;;;;;;;7.47;100.00;100808.44;5030818;28;20057;-57
2023/01/12 01:46:46;;;;;;;24.58;4.70;;;;;;;7.46;100.00;100801.50;5029555;28;20515;-57
2023/01/12 01:49:36;;;;;;;23.95;4.60;;;;;;;7.60;100.00;100803.69;5032137;28;20104;-56
2023/01/12 01:52:13;;;;;;;19.33;4.50;;;;;;;7.56;100.00;100780.38;5031642;28;20033;-57
2023/01/12 01:54:44;;;;;;;19.08;4.53;;;;;;;7.43;100.00;100764.84;5023246;28;20073;-56
2023/01/12 01:57:12;;;;;;;22.95;4.20;;;;;;;7.44;100.00;100766.53;5025613;28;20040;-57
2023/01/12 01:59:41;;;;;;;25.70;4.90;;;;;;;7.44;100.00;100767.34;5029476;28;20071;-57
2023/01/12 02:02:06;;;;;;;20.65;4.00;;;;;;;7.46;100.00;100748.75;5029350;28;20075;-57
2023/01/12 02:04:32;;;;;;;21.15;4.10;;;;;;;7.49;100.00;100759.00;5033364;28;20666;-56
2023/01/12 02:06:59;;;;;;;19.10;4.05;;;;;;;7.43;100.00;100764.84;5029556;28;20034;-57
2023/01/12 02:09:26;;;;;;;20.67;4.30;;;;;;;7.38;100.00;100747.66;5030552;28;20021;-57
2023/01/12 02:17:29;;;;;;;23.90;4.20;;;;;;;7.43;100.00;100738.47;5026284;28;20374;-56
2023/01/12 02:20:14;;;;;;;24.95;4.57;;;;;;;7.57;100.00;100740.66;5030023;28;20068;-57
2023/01/12 02:22:48;;;;;;;22.42;4.28;;;;;;;7.48;100.00;100752.91;5030054;28;20083;-56
2023/01/12 02:25:38;;;;;;;18.17;3.67;;;;;;;7.52;100.00;100732.34;5029857;28;20105;-57
2023/01/12 02:28:31;;;;;;;21.77;4.03;;;;;;;7.54;100.00;100746.22;5030469;28;20587;-57
2023/01/12 02:31:27;;;;;;;23.50;4.15;;;;;;;7.67;100.00;100745.91;5025308;28;20130;-57
2023/01/12 02:34:20;;;;;;;19.52;3.83;;;;;;;7.54;100.00;100733.00;5024087;28;20121;-56
2023/01/12 02:37:03;;;;;;;20.50;3.70;;;;;;;7.64;100.00;100720.63;5023678;28;20051;-56
2023/01/12 02:39:41;;;;;;;22.38;3.97;;;;;;;7.50;100.00;100724.56;5031894;28;20472;-57
2023/01/12 02:42:40;;;;;;;23.08;4.78;;;;;;;7.59;100.00;100711.50;5031035;28;20091;-57
2023/01/12 02:45:30;;;;;;;24.27;3.97;;;;;;;7.57;100.00;100709.00;5023216;28;20163;-56
2023/01/12 02:48:08;;;;;;;21.55;4.10;;;;;;;7.56;100.00;100712.59;5030691;28;20114;-56
2023/01/12 02:50:42;;;;;;;18.23;3.45;;;;;;;7.64;100.00;100702.16;5026785;28;20033;-56
2023/01/12 02:53:19;;;;;;;20.27;3.72;;;;;;;7.61;100.00;100710.34;5028651;28;21443;-57
2023/01/12 02:55:46;;;;;;;17.05;3.97;;;;;;;7.57;100.00;100695.78;5024048;28;20112;-57
2023/01/12 02:58:15;;;;;;;16.73;3.90;;;;;;;7.57;100.00;100692.31;5030931;28;20056;-57
2023/01/12 03:00:44;;;;;;;20.98;3.70;;;;;;;7.57;100.00;100685.25;5029774;28;20034;-57
2023/01/12 03:03:10;;;;;;;19.30;4.32;;;;;;;7.69;100.00;100685.06;5020330;28;20048;-57
2023/01/12 03:05:39;;;;;;;19.27;3.60;;;;;;;7.61;100.00;100676.03;5028566;28;20469;-57
2023/01/12 03:08:04;;;;;;;20.40;3.80;;;;;;;7.59;100.00;100664.00;5021498;28;20041;-57
2023/01/12 03:10:42;;;;;;;20.83;4.00;;;;;;;7.62;100.00;100653.97;5027962;28;20030;-56
2023/01/12 03:13:11;;;;;;;20.38;4.05;;;;;;;7.53;100.00;100654.84;5025257;28;20037;-58
2023/01/12 03:15:42;;;;;;;21.00;3.85;;;;;;;7.56;100.00;100638.72;5031688;28;20056;-57
2023/01/12 03:18:11;;;;;;;21.00;3.70;;;;;;;7.55;100.00;100626.47;5028301;28;20094;-57
2023/01/12 03:20:42;;;;;;;16.77;3.50;;;;;;;7.53;100.00;100628.44;5025422;28;20041;-57
2023/01/12 03:23:20;;;;;;;21.52;4.00;;;;;;;7.59;100.00;100638.41;5028672;28;20065;-57
2023/01/12 03:25:47;;;;;;;16.27;4.00;;;;;;;7.58;100.00;100623.56;5031174;28;20036;-57
2023/01/12 03:28:17;;;;;;;22.45;3.80;;;;;;;7.58;100.00;100625.34;5025816;28;20085;-57
2023/01/12 03:30:58;;;;;;;17.00;3.47;;;;;;;7.67;100.00;100616.56;5022718;28;20026;-56
2023/01/12 03:33:25;;;;;;;17.48;3.85;;;;;;;7.61;100.00;100611.88;5026942;28;20040;-57
2023/01/12 03:36:04;;;;;;;18.95;3.80;;;;;;;7.67;100.00;100598.09;5040387;28;20163;-57
2023/01/12 03:38:50;;;;;;;20.30;3.53;;;;;;;7.57;100.00;100590.25;5026926;28;20041;-58
2023/01/12 03:41:25;;;;;;;16.42;3.10;;;;;;;7.77;100.00;100603.31;5027662;28;20363;-57
2023/01/12 03:43:56;;;;;;;14.77;3.30;;;;;;;7.66;100.00;100596.44;5026145;28;20033;-57
2023/01/12 03:46:26;;;;;;;16.92;3.33;;;;;;;7.80;100.00;100588.00;5029488;28;20069;-56
2023/01/12 03:49:02;;;;;;;16.05;3.25;;;;;;;7.71;100.00;100574.88;5029460;28;20029;-56
2023/01/12 03:51:35;;;;;;;15.82;3.10;;;;;;;7.67;100.00;100542.66;5028129;28;20037;-57
2023/01/12 03:54:03;;;;;;;13.98;3.25;;;;;;;7.66;100.00;100562.13;5028605;28;20021;-57
2023/01/12 03:56:34;;;;;;;18.83;3.55;;;;;;;7.70;100.00;100538.91;5027973;28;20046;-57
2023/01/12 03:59:00;;;;;;;15.85;3.17;;;;;;;7.66;100.00;100527.81;5026246;28;20036;-57
2023/01/12 04:01:25;;;;;;;16.15;3.50;;;;;;;7.60;100.00;100521.31;5026419;28;20443;-57
2023/01/12 04:03:50;;;;;;;13.20;2.80;;;;;;;7.62;100.00;100522.00;5026101;28;20026;-57
2023/01/12 04:06:16;;;;;;;16.48;3.20;;;;;;;7.57;100.00;100519.00;5027151;28;20032;-60
2023/01/12 04:08:41;;;;;;;11.65;2.88;;;;;;;7.58;100.00;100512.72;5028450;28;20080;-57
2023/01/12 04:13:51;;;;;;;15.38;3.50;;;;;;;7.59;100.00;100505.66;5029885;28;20056;-57
2023/01/12 04:16:17;;;;;;;18.25;4.03;;;;;;;7.69;100.00;100490.56;5028123;28;20033;-57
2023/01/12 04:18:42;;;;;;;18.10;3.40;;;;;;;7.61;100.00;100472.84;5023277;28;20481;-57
2023/01/12 04:22:41;;;;;;;16.00;3.40;;;;;;;7.54;100.00;100492.88;5026028;28;20037;-58
2023/01/12 04:23:53;;;;;;;18.25;3.50;;;;;;;7.57;100.00;100479.41;5021126;28;20763;-59
2023/01/12 04:26:18;;;;;;;19.15;3.80;;;;;;;7.57;100.00;100465.38;5026621;28;20029;-57
2023/01/12 04:28:43;;;;;;;16.92;3.80;;;;;;;7.53;100.00;100470.97;5021963;28;20067;-59
2023/01/12 04:31:09;;;;;;;18.23;3.38;;;;;;;7.52;100.00;100463.19;5030038;28;20033;-56
2023/01/12 04:33:34;;;;;;;13.88;3.47;;;;;;;7.51;100.00;100466.81;5022936;28;20072;-57
2023/01/12 04:35:59;;;;;;;15.70;3.10;;;;;;;7.53;100.00;100443.75;5025685;28;20061;-57
2023/01/12 04:38:24;;;;;;;13.40;3.13;;;;;;;7.47;100.00;100433.78;5031241;28;20435;-56
2023/01/12 04:40:53;;;;;;;15.90;3.22;;;;;;;7.57;100.00;100434.56;5029267;28;20047;-56
2023/01/12 04:43:19;;;;;;;18.05;3.40;;;;;;;7.66;100.00;100423.06;5024511;28;20034;-56
2023/01/12 04:45:45;;;;;;;16.85;3.15;;;;;;;7.59;100.00;100421.22;5026997;28;20125;-56
2023/01/12 04:48:11;;;;;;;15.15;3.30;;;;;;;7.53;100.00;100398.88;5028486;28;20080;-60
2023/01/12 04:50:38;;;;;;;19.52;3.58;;;;;;;7.53;100.00;100406.81;5016894;28;20038;-57
2023/01/12 04:53:06;;;;;;;15.88;3.45;;;;;;;7.47;100.00;100386.31;5021330;28;20108;-56
2023/01/12 04:55:34;;;;;;;14.95;3.20;;;;;;;7.51;100.00;100382.38;5025088;28;20099;-57
2023/01/12 04:57:59;;;;;;;15.23;3.45;;;;;;;7.54;100.00;100395.25;5029311;28;20661;-57
2023/01/12 05:00:25;;;;;;;16.10;3.10;;;;;;;7.62;100.00;100387.44;5027957;28;20056;-58
2023/01/12 05:02:56;;;;;;;15.65;3.15;;;;;;;7.60;100.00;100402.56;5022812;28;20037;-57
2023/01/12 05:05:22;;;;;;;15.32;3.20;;;;;;;7.55;100.00;100373.16;5020464;28;20037;-57
2023/01/12 05:10:31;;;;;;;15.05;3.22;;;;;;;7.55;100.00;100373.16;5023113;28;20041;-57
2023/01/12 05:12:56;;;;;;;15.00;3.25;;;;;;;7.54;100.00;100353.88;5021164;28;20042;-57
2023/01/12 05:15:22;;;;;;;16.10;3.10;;;;;;;7.61;100.00;100385.75;5027501;28;20042;-57
2023/01/12 05:17:48;;;;;;;11.95;2.55;;;;;;;7.59;100.00;100384.28;5028215;28;20022;-57
2023/01/12 05:20:13;;;;;;;14.40;3.38;;;;;;;7.56;100.00;100374.84;5027210;28;20109;-57
2023/01/12 05:22:38;;;;;;;13.90;3.10;;;;;;;7.63;100.00;100362.69;5030073;28;20025;-57
2023/01/12 05:25:04;;;;;;;17.10;3.22;;;;;;;7.73;100.00;100380.22;5027155;28;20038;-57
2023/01/12 05:27:29;;;;;;;16.13;3.28;;;;;;;7.58;100.00;100383.44;5029072;28;20082;-57
2023/01/12 05:29:56;;;;;;;17.30;3.50;;;;;;;7.59;100.00;100373.72;5029222;28;20056;-57
2023/01/12 05:32:21;;;;;;;16.48;3.40;;;;;;;7.60;100.00;100375.38;5030355;28;20014;-56
2023/01/12 05:34:46;;;;;;;15.32;2.90;;;;;;;7.59;100.00;100384.28;5024203;28;20026;-57
2023/01/12 05:37:12;;;;;;;16.23;2.97;;;;;;;7.57;100.00;100360.66;5026504;28;20041;-55
2023/01/12 05:39:37;;;;;;;17.63;3.47;;;;;;;7.56;100.00;100380.13;5027184;28;20121;-57
2023/01/12 05:44:47;;;;;;;17.60;2.90;;;;;;;7.69;100.00;100378.91;5025868;28;20103;-57
2023/01/12 05:47:12;;;;;;;15.90;3.00;;;;;;;7.61;100.00;100367.28;5025213;28;20037;-57
2023/01/12 05:49:37;;;;;;;12.80;2.60;;;;;;;7.59;100.00;100374.53;5022219;28;20481;-57
2023/01/12 05:52:03;;;;;;;15.38;2.78;;;;;;;7.69;100.00;100376.25;5024769;28;20025;-57
2023/01/12 05:54:28;;;;;;;15.55;2.80;;;;;;;7.66;100.00;100380.84;5020342;28;20041;-58
2023/01/12 05:56:54;;;;;;;12.50;2.70;;;;;;;7.62;100.00;100361.03;5025783;28;20053;-58
2023/01/12 05:59:19;;;;;;;10.57;2.80;;;;;;;7.64;100.00;100355.59;5024665;28;20333;-57
2023/01/12 06:01:45;;;;;;;10.48;2.53;;;;;;;7.63;100.00;100367.13;5028808;28;20029;-56
2023/01/12 06:04:10;;;;;;;13.25;2.40;;;;;;;7.64;100.00;100351.16;5023747;28;20114;-57
2023/01/12 06:06:35;;;;;;;9.27;2.47;;;;;;;7.62;100.00;100349.66;5022629;28;20033;-57
2023/01/12 06:09:01;;;;;;;11.25;2.60;;;;;;;7.81;100.00;100361.81;5026388;28;20472;-57
2023/01/12 06:14:10;;;;;;;11.65;2.25;;;;;;;7.69;100.00;100348.03;5030952;28;20530;-54
2023/01/12 06:16:37;;;;;;;11.52;2.60;;;;;;;7.69;100.00;100361.22;5030974;28;20034;-57
2023/01/12 06:19:03;;;;;;;9.45;2.20;;;;;;;7.89;100.00;100356.59;5028692;28;20075;-57
2023/01/12 06:21:30;;;;;;;9.32;2.28;;;;;;;7.78;100.00;100359.47;5031619;28;20436;-57
2023/01/12 06:23:56;;;;;;;12.02;2.55;;;;;;;7.83;100.00;100370.41;5030024;28;20030;-56
2023/01/12 06:26:21;;;;;;;7.53;1.85;;;;;;;7.90;100.00;100376.72;5029481;28;20034;-56
2023/01/12 06:28:46;;;;;;;10.80;2.40;;;;;;;7.82;100.00;100374.03;5024310;28;20036;-57
2023/01/12 06:31:13;;;;;;;8.88;2.45;;;;;;;7.86;100.00;100370.13;5029038;28;20029;-57
2023/01/12 06:33:38;;;;;;;7.72;2.30;;;;;;;7.79;100.00;100375.16;5031996;28;20435;-57
2023/01/12 06:36:04;;;;;;;9.77;2.40;;;;;;;7.79;100.00;100367.25;5024412;28;20030;-57
2023/01/12 06:38:32;;;;;;;6.53;2.10;;;;;;;7.82;100.00;100368.75;5029822;28;20033;-57
2023/01/12 06:42:27;;;;;;;9.73;2.30;;;;;;;7.85;100.00;100375.53;5028027;28;20056;-57
2023/01/12 06:43:55;;;;;;;6.25;2.10;;;;;;;7.83;100.00;100365.13;5024967;28;20516;-57
2023/01/12 06:46:21;;;;;;;7.03;2.20;;;;;;;7.86;100.00;100372.75;5023316;28;20076;-57
2023/01/12 06:48:46;;;;;;;7.13;2.30;;;;;;;7.98;100.00;100373.31;5023874;28;20056;-58
2023/01/12 06:51:11;;;;;;;6.82;2.20;;;;;;;7.93;100.00;100370.28;5025594;28;20030;-59
2023/01/12 06:53:37;;;;;;;11.10;2.13;;;;;;;8.04;100.00;100366.59;5027182;28;20121;-56
2023/01/12 06:56:02;;;;;;;7.50;2.10;;;;;;;7.93;100.00;100355.31;5022799;28;20496;-56
2023/01/12 06:58:28;;;;;;;6.32;2.22;;;;;;;7.96;100.00;100358.59;5023124;28;20037;-57
2023/01/12 07:00:53;;;;;;;8.50;2.30;;;;;;;7.93;100.00;100360.56;5022377;28;20040;-58
2023/01/12 07:03:19;;;;;;;5.13;2.15;;;;;;;7.98;100.00;100356.66;5029184;28;20065;-56
2023/01/12 07:05:45;;;;;;;5.40;1.92;;;;;;;7.94;100.00;100367.50;5026281;28;20034;-58
2023/01/12 07:08:14;;;;;;;7.25;1.80;;;;;;;8.04;100.00;100356.03;5024938;28;20021;-57
2023/01/12 07:10:41;;;;;;;5.38;2.10;;;;;;;8.01;100.00;100348.41;5024634;28;20701;-56
2023/01/12 07:13:06;;;;;;;8.25;1.90;;;;;;;8.06;100.00;100346.13;5024510;28;20490;-57
2023/01/12 07:15:31;;;;;;;6.75;2.03;;;;;;;8.01;100.00;100372.16;5023874;28;20040;-57
2023/01/12 07:17:57;;;;;;;5.88;1.95;;;;;;;8.02;100.00;100358.81;5024403;28;20045;-59
2023/01/12 07:20:23;;;;;;;5.32;2.00;;;;;;;8.05;100.00;100373.53;5026792;28;20107;-57
2023/01/12 07:22:48;;;;;;;5.57;1.95;;;;;;;8.04;100.00;100356.03;5024231;28;20074;-58
2023/01/12 07:25:14;;;;;;;5.03;1.95;;;;;;;8.13;100.00;100354.22;5024896;28;20156;-57
2023/01/12 07:27:47;;;;;;;5.47;2.00;;;;;;;8.25;100.00;100373.28;5027525;28;20053;-57
2023/01/12 07:30:12;;;;;;;6.55;2.00;;;;;;;8.06;100.00;100372.53;5023973;28;20033;-58
2023/01/12 07:32:38;;;;;;;6.22;2.10;;;;;;;8.10;100.00;100371.25;5022264;28;20091;-57
2023/01/12 07:35:03;;;;;;;4.70;2.00;;;;;;;8.13;100.00;100372.72;5025341;28;20041;-57
2023/01/12 07:37:29;;;;;;;5.97;1.92;;;;;;;8.16;100.00;100373.25;5022544;28;20044;-59
2023/01/12 07:39:54;;;;;;;5.18;1.85;;;;;;;8.09;100.00;100385.41;5022038;28;20029;-57
2023/01/12 07:42:22;;;;;;;8.43;2.08;;;;;;;8.27;100.00;100392.44;5025016;28;20485;-57
2023/01/12 07:44:47;;;;;;;6.97;1.95;;;;;;;8.16;100.00;100378.53;5025787;28;20079;-57
2023/01/12 07:47:13;;;;;;;5.93;1.92;;;;;;;8.14;100.00;100387.59;5022022;28;20033;-59
2023/01/12 07:49:38;;;;;;;5.43;1.80;;;;;;;8.24;100.00;100398.06;5029624;28;20039;-57
2023/01/12 07:52:04;;;;;;;6.45;2.00;;;;;;;8.11;100.00;100383.47;5030972;28;20432;-57
2023/01/12 07:54:29;;;;;;;5.90;2.00;;;;;;;8.15;100.00;100379.50;5026564;28;20044;-56
2023/01/12 07:56:54;;;;;;;6.95;2.00;;;;;;;8.15;100.00;100387.41;5038270;28;20037;-57
2023/01/12 07:59:20;;;;;;;7.03;1.88;;;;;;;8.28;100.00;100399.38;5027810;28;20401;-57
2023/01/12 08:01:45;;;;;;;6.68;2.10;;;;;;;8.24;100.00;100398.06;5026140;28;20044;-57
2023/01/12 08:04:10;;;;;;;6.78;2.20;;;;;;;8.16;100.00;100391.75;5020686;28;20049;-56
2023/01/12 08:06:36;;;;;;;6.10;2.03;;;;;;;8.27;100.00;100393.28;5029598;28;20037;-57
2023/01/12 08:09:02;;;;;;;6.75;1.90;;;;;;;8.25;100.00;100405.81;5013756;28;20448;-57
2023/01/12 08:11:27;;;;;;;4.40;2.00;;;;;;;8.18;100.00;100402.97;5030393;28;20552;-58
2023/01/12 08:13:54;;;;;;;6.85;2.03;;;;;;;8.19;100.00;100425.75;5029100;28;20072;-58
2023/01/12 08:16:26;;;;;;;6.70;2.25;;;;;;;8.27;100.00;100409.13;5031919;28;20045;-56
2023/01/12 08:19:10;;;;;;;5.15;1.83;;;;;;;8.20;100.00;100424.75;5031982;28;20049;-57
2023/01/12 08:21:44;;;;;;;5.45;1.98;;;;;;;8.28;100.00;100421.34;5023271;28;20040;-57
2023/01/12 08:24:12;;;;;;;3.25;1.80;;;;;;;8.35;100.00;100425.00;5021838;28;20057;-57
2023/01/12 08:26:41;;;;;;;6.63;1.90;;;;;;;8.21;100.00;100423.78;5023324;28;20120;-57
2023/01/12 08:29:28;;;;;;;4.93;1.90;;;;;;;8.24;100.00;100435.03;5016724;28;20109;-56
2023/01/12 08:32:00;;;;;;;4.53;2.03;;;;;;;8.26;100.00;100423.31;5029341;28;20490;-58
2023/01/12 08:34:27;;;;;;;5.10;1.90;;;;;;;8.28;100.00;100439.00;5026910;28;20036;-57
2023/01/12 08:36:52;;;;;;;4.55;2.03;;;;;;;8.34;100.00;100441.03;5020101;28;20048;-57
2023/01/12 08:39:18;;;;;;;4.18;2.20;;;;;;;8.27;100.00;100447.91;5030040;28;20512;-57
2023/01/12 08:41:43;;;;;;;6.57;2.15;;;;;;;8.33;100.00;100447.28;5015592;28;20022;-57
2023/01/12 08:44:12;;;;;;;5.40;2.17;;;;;;;8.34;100.00;100446.31;5019212;28;20444;-57
2023/01/12 08:46:47;;;;;;;3.50;2.17;;;;;;;8.34;100.00;100446.31;5022784;28;20045;-57
2023/01/12 08:49:14;;;;;;;4.10;1.73;;;;;;;8.41;100.00;100455.28;5011648;28;20036;-57
2023/01/12 08:51:40;;;;;;;4.75;1.92;;;;;;;8.47;100.00;100451.16;5011656;28;20462;-57
2023/01/12 08:54:07;;;;;;;5.13;2.08;;;;;;;8.46;100.00;100463.56;5020370;28;20055;-57
2023/01/12 08:56:32;;;;;;;4.07;1.90;;;;;;;8.40;100.00;100466.84;5021693;28;20582;-58
2023/01/12 08:58:59;;;;;;;3.45;1.85;;;;;;;8.44;100.00;100460.22;5020269;28;20065;-56
2023/01/12 09:01:24;;;;;;;5.07;1.90;;;;;;;8.42;100.00;100469.31;5028137;28;20037;-57
2023/01/12 09:03:49;;;;;;;5.40;1.90;;;;;;;8.38;100.00;100463.50;5026814;28;20068;-57
2023/01/12 09:06:20;;;;;;;5.35;2.10;;;;;;;8.39;100.00;100465.16;5028975;28;20507;-57
2023/01/12 09:08:46;;;;;;;4.40;1.70;;;;;;;8.53;100.00;100460.31;5027707;28;20029;-57
2023/01/12 09:11:14;;;;;;;4.68;1.88;;;;;;;8.53;100.00;100477.00;5027014;28;20030;-58
2023/01/12 09:13:40;;;;;;;2.70;1.90;;;;;;;8.66;100.00;100468.66;5030229;28;20030;-56
2023/01/12 09:16:07;;;;;;;4.60;1.70;;;;;;;8.47;100.00;100478.44;5027972;28;20032;-57
2023/01/12 09:18:33;;;;;;;4.00;2.10;;;;;;;8.48;100.00;100469.50;5028985;28;20044;-57
2023/01/12 09:21:05;;;;;;;3.85;1.90;;;;;;;8.55;100.00;100479.50;5028096;28;20034;-57
2023/01/12 09:23:31;;;;;;;4.87;2.17;;;;;;;8.61;100.00;100471.78;5012467;28;20454;-58
2023/01/12 09:26:02;;;;;;;3.75;1.80;;;;;;;8.55;100.00;100480.31;5029558;28;20030;-57
2023/01/12 09:28:27;;;;;;;3.30;1.90;;;;;;;8.55;100.00;100471.56;5030719;28;20560;-57
2023/01/12 09:30:52;;;;;;;3.58;1.92;;;;;;;8.59;100.00;100479.00;5016689;28;20099;-57
2023/01/12 09:33:18;;;;;;;4.15;1.80;;;;;;;8.63;100.00;100482.16;5023153;28;20034;-56
2023/01/12 09:35:43;;;;;;;3.70;1.80;;;;;;;8.65;100.00;100485.50;5018501;28;20053;-56
2023/01/12 09:38:09;;;;;;;3.25;2.03;;;;;;;8.65;100.00;100482.00;5022003;28;20057;-57
2023/01/12 09:40:35;;;;;;;4.55;1.85;;;;;;;8.63;100.00;100492.72;5022865;28;20037;-57
2023/01/12 09:48:29;;;;;;;3.80;1.60;;;;;;;8.61;100.00;100478.84;5023142;28;20048;-60
2023/01/12 09:51:08;;;;;;;2.53;1.55;;;;;;;8.65;100.00;100498.72;5030890;28;20033;-59
2023/01/12 09:53:37;;;;;;;2.97;1.60;;;;;;;8.64;100.00;100507.63;5017603;28;20449;-61
2023/01/12 09:56:02;;;;;;;2.70;1.50;;;;;;;8.67;100.00;100509.94;5031888;28;20029;-60
2023/01/12 09:58:52;;;;;;;2.80;1.40;;;;;;;8.66;100.00;100503.00;5032174;28;20459;-60
2023/01/12 10:01:20;;;;;;;2.08;1.45;;;;;;;8.68;100.00;100506.31;5024511;28;20428;-60
2023/01/12 10:03:45;;;;;;;2.83;1.80;;;;;;;8.64;100.00;100499.72;5029969;28;20033;-59
2023/01/12 10:06:16;;;;;;;1.98;1.23;;;;;;;8.79;100.00;100514.97;5026963;28;20099;-60
2023/01/12 10:08:46;;;;;;;1.88;1.08;;;;;;;8.79;100.00;100515.78;5031309;28;20083;-60
2023/01/12 10:11:20;;;;;;;3.25;1.52;;;;;;;8.74;100.00;100518.91;5030397;28;20037;-61
2023/01/12 10:13:56;;;;;;;1.63;1.52;;;;;;;8.69;100.00;100513.25;5029749;28;20116;-60
2023/01/12 10:16:34;;;;;;;2.03;1.48;;;;;;;8.75;100.00;100514.47;5030899;28;20623;-58
2023/01/12 10:19:07;;;;;;;2.20;1.50;;;;;;;8.74;100.00;100521.53;5029999;28;20099;-60
2023/01/12 10:21:33;;;;;;;2.75;1.60;;;;;;;8.78;100.00;100515.97;5026023;28;20033;-60
2023/01/12 10:23:59;;;;;;;1.48;1.33;;;;;;;8.77;100.00;100519.59;5030196;28;20034;-60
2023/01/12 10:26:27;;;;;;;2.38;1.48;;;;;;;8.71;100.00;100521.03;5029861;28;20484;-60
2023/01/12 10:28:54;;;;;;;1.50;1.40;;;;;;;8.78;100.00;100523.88;5028948;28;20033;-61
2023/01/12 10:31:22;;;;;;;2.33;1.52;;;;;;;8.72;100.00;100517.41;5030762;28;20030;-60
2023/01/12 10:34:05;;;;;;;1.92;1.65;;;;;;;8.78;100.00;100515.97;5032631;28;20489;-60
2023/01/12 10:36:33;;;;;;;2.40;1.30;;;;;;;8.73;100.00;100514.59;5027125;28;20075;-58
2023/01/12 10:39:02;;;;;;;2.50;1.30;;;;;;;8.81;100.00;100508.53;5031056;28;20034;-59
2023/01/12 10:41:32;;;;;;;3.13;1.40;;;;;;;8.84;100.00;100510.84;5027069;28;20029;-60
2023/01/12 10:43:58;;;;;;;1.52;1.30;;;;;;;8.86;100.00;100508.06;5023421;28;20377;-59
2023/01/12 10:46:26;;;;;;;3.08;1.40;;;;;;;8.82;100.00;100512.00;5024173;28;20041;-60
2023/01/12 10:49:15;;;;;;;1.85;1.27;;;;;;;8.86;100.00;100506.25;5030226;28;20381;-58
2023/01/12 10:51:58;;;;;;;2.10;1.45;;;;;;;8.85;100.00;100511.69;5025337;28;20470;-58
2023/01/12 10:54:32;;;;;;;2.95;1.60;;;;;;;8.81;100.00;100510.34;5028675;28;20112;-58
2023/01/12 10:57:16;;;;;;;3.03;1.58;;;;;;;8.87;100.00;100515.00;5030331;28;20025;-59
2023/01/12 10:59:50;;;;;;;1.50;1.40;;;;;;;8.82;100.00;100512.00;5021316;28;20033;-58
2023/01/12 11:02:16;;;;;;;1.75;1.40;;;;;;;8.93;100.00;100509.06;5020335;28;20026;-58
2023/01/12 11:04:48;;;;;;;1.60;1.48;;;;;;;8.90;100.00;100512.06;5022099;28;20109;-58
2023/01/12 11:07:25;;;;;;;2.10;1.27;;;;;;;8.92;100.00;100507.41;5017822;28;20073;-58
2023/01/12 11:09:51;;;;;;;1.60;1.30;;;;;;;8.91;100.00;100511.06;5020744;28;20461;-58
2023/01/12 11:12:33;;;;;;;1.40;1.30;;;;;;;9.01;100.00;100522.34;5023219;28;20037;-58
2023/01/12 11:15:10;;;;;;;4.13;1.57;;;;;;;8.95;100.00;100517.69;5021565;28;20624;-58
2023/01/12 11:17:42;;;;;;;1.70;1.50;;;;;;;8.93;100.00;100514.38;5018827;28;20029;-58
2023/01/12 11:20:38;;;;;;;2.45;1.50;;;;;;;8.91;100.00;100519.00;5020508;28;20095;-59
2023/01/12 11:23:28;;;;;;;2.45;1.27;;;;;;;9.01;100.00;100514.41;5021297;28;20361;-58
2023/01/12 11:25:55;;;;;;;2.92;1.60;;;;;;;9.01;100.00;100506.47;5020502;28;20041;-59
2023/01/12 11:28:39;;;;;;;2.15;1.45;;;;;;;9.02;100.00;100502.84;5020497;28;20025;-59
2023/01/12 11:31:11;;;;;;;1.50;1.40;;;;;;;9.00;100.00;100510.13;5020533;28;20025;-58
2023/01/12 11:33:41;;;;;;;1.40;1.30;;;;;;;8.98;100.00;100511.25;5019161;28;20022;-58
2023/01/12 11:36:10;;;;;;;1.55;1.30;;;;;;;8.98;100.00;100506.78;5022718;28;20120;-57
2023/01/12 11:38:43;;;;;;;4.00;1.63;;;;;;;9.01;100.00;100500.34;5020491;28;20036;-60
2023/01/12 11:41:40;;;;;;;2.58;1.38;;;;;;;9.11;100.00;100513.44;5019044;28;20538;-58
2023/01/12 11:44:29;;;;;;;1.83;1.50;;;;;;;9.12;100.00;100502.72;5017366;28;20072;-57
2023/01/12 11:47:03;;;;;;;3.15;1.63;;;;;;;8.98;100.00;100498.84;5018945;28;20065;-58
2023/01/12 11:49:45;;;;;;;2.80;1.58;;;;;;;9.05;100.00;100500.84;5016701;28;20037;-58
2023/01/12 11:52:13;;;;;;;1.50;1.30;;;;;;;9.02;100.00;100492.25;5020470;28;20077;-58
2023/01/12 11:54:39;;;;;;;3.30;1.70;;;;;;;9.00;100.00;100496.06;5018537;28;20029;-57
2023/01/12 11:57:26;;;;;;;2.58;1.50;;;;;;;9.01;100.00;100490.59;5018768;28;20029;-58
2023/01/12 12:00:19;;;;;;;2.28;1.58;;;;;;;9.16;100.00;100503.22;5020743;28;20388;-58